Aeroporto :







RITROVATECI SU...

 
LOGIN :

Iscrizione | Disclaimer

   EN    FR    IT 

 









Sommario :    VFR   VFR Marginale   IFR   IFR Intensivo   IFR Molto Intensivo
Visibilità : 
Base nubi : 
>= 8 km
>= 3000ft
5 / 8 km
1000 / 3000 ft
1500m / 5 km
500 / 1000 ft
800 / 1500m
200 / 500 ft
< 800m
< 200 ft
Simboli :   Temporali  Nebbia  Neve Forte  Precipitazioni Forti  Vento > 20 kt






- Altitudine del aeroporto : 234 ft
- Codice IATA : PBG


KPBG - Plattsburgh International

ULTIMO METAR :
  • 202053Z AUTO VRB06KT 10SM FEW055 M07/M19 A3041 RMK AO2 SLP303 60000 T10721189 55005

METARs OBSOLETI :
  • 201953Z AUTO 34009KT 10SM CLR M08/M17 A3040 RMK AO2 UPE00 SLP300 P0000 T10781172
  • 201853Z AUTO 32009KT 10SM UP FEW048 M08/M18 A3041 RMK AO2 UPB41 SLP302 P0000 T10781178

TAF KPBG
Valido dal 20 a 18 ore il 21 a 18 ore UTC


201722Z 2018/2118 10006KT P6SM BKN045
FM202000 35008KT P6SM FEW100
FM210000 00000KT P6SM FEW250
FM211400 19007KT P6SM FEW150



MetMap, La meteo Aeronautica in un colpo d'occhio ! - Copyright ORBIFLY Dicembre 2007 - Disclaimer

ORBIFLY MET'MAP TEAM :

Programmazione e sviluppo : Alexandra Zaïnal
Concezione : Baudouin d'Aumeries
Aiuto per la programmazione : Marc-Olivier Méhu
Supporto tecnico e logistico : Manuel Goepfert
Aiuto per la traduzione : Arnaldo La Scala

Contatto : metmap@orbifly.com




FONTI E CREDITI :

   NOAA